Terminal Aerodrome Forecast
Issued by NWS

Home | Current Version | Previous Version | Text Only | Print | Product List | Glossary On
Versions: 1 2 3 4 5 6 7 8 9 10 11 12 13 14
760
FTUS46 KSGX 291736
TAFSNA
TAF
KSNA 291736Z 2918/3018 VRB05KT P6SM OVC025
     FM291930 25011KT P6SM SCT020 SCT250
     FM300330 VRB05KT P6SM OVC020
     FM301600 VRB05KT P6SM BKN025=

USA.gov is the U.S. government's official web portal to all federal, state and local government web resources and services.